createdAt,value
2023-02-24T00:00:45.873Z,101100.64
2023-02-24T00:03:52.089Z,101096.67
2023-02-24T00:06:57.562Z,101095.28
2023-02-24T00:10:01.545Z,101085.35
2023-02-24T00:13:06.367Z,101085.18
2023-02-24T00:16:18.565Z,101088.07
2023-02-24T00:19:23.174Z,101085.39
2023-02-24T00:22:28.158Z,101062.85
2023-02-24T00:25:33.305Z,101064.92
2023-02-24T00:28:37.722Z,101059.83
2023-02-24T00:31:44.908Z,101045.53
2023-02-24T00:34:50.428Z,101049.33
2023-02-24T00:37:57.973Z,101051.04
2023-02-24T00:40:55.873Z,101057.94
2023-02-24T00:43:44.828Z,101063.14
2023-02-24T00:46:38.114Z,101052.09
2023-02-24T00:49:24.830Z,101052.95
2023-02-24T00:52:23.084Z,101049.33
2023-02-24T00:55:20.333Z,101051.91
2023-02-24T00:58:25.700Z,101048.70
2023-02-24T01:01:31.465Z,101045.95
2023-02-24T01:04:35.928Z,101037.88
2023-02-24T01:07:39.467Z,101023.16
2023-02-24T01:10:42.917Z,101016.44
2023-02-24T01:13:46.983Z,101014.97
2023-02-24T01:16:53.888Z,101012.75
2023-02-24T01:19:59.856Z,101008.94
2023-02-24T01:23:05.679Z,101014.66
2023-02-24T01:26:09.602Z,101006.24
2023-02-24T01:29:07.996Z,100991.19
2023-02-24T01:32:09.699Z,101003.09
2023-02-24T01:35:16.004Z,101008.23
2023-02-24T01:38:21.286Z,101002.47
2023-02-24T01:41:27.247Z,101000.92
2023-02-24T01:44:36.576Z,101005.95
2023-02-24T01:47:40.450Z,100996.33
2023-02-24T01:50:45.004Z,100986.37
2023-02-24T01:53:50.295Z,100993.39
2023-02-24T01:56:54.545Z,100997.41
2023-02-24T02:00:01.215Z,100995.67
2023-02-24T02:03:11.111Z,100990.72
2023-02-24T02:06:17.771Z,100999.50
2023-02-24T02:09:23.949Z,100987.28
2023-02-24T02:12:29.179Z,100999.72
2023-02-24T02:15:34.453Z,100995.36
2023-02-24T02:18:44.547Z,100993.83
2023-02-24T02:22:24.330Z,100987.34
2023-02-24T02:25:40.431Z,100993.82
2023-02-24T02:29:13.770Z,100992.42
2023-02-24T02:32:22.179Z,100986.21
2023-02-24T02:35:30.868Z,100975.52
2023-02-24T02:38:44.265Z,100978.31
2023-02-24T02:41:51.181Z,100972.78
2023-02-24T02:45:02.712Z,100973.25
2023-02-24T02:48:18.358Z,100969.83
2023-02-24T02:51:25.173Z,100963.88
2023-02-24T02:54:34.194Z,100964.91
2023-02-24T02:57:44.800Z,100955.73
2023-02-24T03:00:59.228Z,100964.83
2023-02-24T03:04:11.795Z,100954.20
2023-02-24T03:07:16.610Z,100952.84
2023-02-24T03:10:25.714Z,100952.84
2023-02-24T03:13:32.582Z,100948.58
2023-02-24T03:16:38.124Z,100941.77
2023-02-24T03:19:47.039Z,100937.30
2023-02-24T03:22:57.553Z,100934.15
2023-02-24T03:26:24.187Z,100936.00
2023-02-24T03:29:39.656Z,100935.02
2023-02-24T03:32:49.498Z,100929.72
2023-02-24T03:35:57.528Z,100924.94
2023-02-24T03:39:01.372Z,100925.50
2023-02-24T03:42:13.538Z,100931.92
2023-02-24T03:45:18.639Z,100932.63
2023-02-24T03:48:24.306Z,100923.09
2023-02-24T03:51:31.221Z,100918.44
2023-02-24T03:54:49.380Z,100922.06
2023-02-24T03:58:13.657Z,100919.43
2023-02-24T04:01:51.422Z,100917.11
2023-02-24T04:05:04.186Z,100901.73
2023-02-24T04:08:19.814Z,100899.72
2023-02-24T04:11:29.318Z,100898.98
2023-02-24T04:14:54.567Z,100897.03
2023-02-24T04:18:02.039Z,100897.13
2023-02-24T04:21:09.097Z,100890.31
2023-02-24T04:24:17.472Z,100890.23
2023-02-24T04:27:17.910Z,100888.20
2023-02-24T04:30:24.576Z,100873.66
2023-02-24T04:33:29.174Z,100883.41
2023-02-24T04:36:35.508Z,100873.79
2023-02-24T04:39:40.151Z,100877.54
2023-02-24T04:42:53.139Z,100869.60
2023-02-24T04:49:29.901Z,100872.02
2023-02-24T04:52:35.186Z,100869.52
2023-02-24T04:55:40.960Z,100870.00
2023-02-24T04:58:46.758Z,100862.62
2023-02-24T05:01:52.719Z,100866.29
2023-02-24T05:04:59.807Z,100858.48
2023-02-24T05:08:04.445Z,100866.33
2023-02-24T05:11:13.076Z,100853.61
2023-02-24T05:14:17.568Z,100857.98
2023-02-24T05:17:22.640Z,100859.96
2023-02-24T05:20:44.693Z,100862.72
2023-02-24T05:23:55.076Z,100864.89
2023-02-24T05:26:57.885Z,100859.86
2023-02-24T05:30:02.111Z,100857.98
2023-02-24T05:33:06.385Z,100871.14
2023-02-24T05:36:11.198Z,100861.47
2023-02-24T05:39:21.230Z,100857.22
2023-02-24T05:42:26.392Z,100873.45
2023-02-24T05:45:32.990Z,100865.71
2023-02-24T05:48:39.644Z,100870.98
2023-02-24T05:51:49.249Z,100866.63
2023-02-24T05:54:57.824Z,100863.95
2023-02-24T05:58:03.315Z,100857.80
2023-02-24T06:01:12.268Z,100863.30
2023-02-24T06:04:22.172Z,100854.66
2023-02-24T06:07:33.132Z,100851.09
2023-02-24T06:10:40.342Z,100863.75
2023-02-24T06:13:45.072Z,100853.25
2023-02-24T06:16:54.925Z,100854.59
2023-02-24T06:20:00.605Z,100854.58
2023-02-24T06:23:05.032Z,100854.46
2023-02-24T06:26:15.758Z,100843.37
2023-02-24T06:29:21.688Z,100837.86
2023-02-24T06:32:26.064Z,100839.41
2023-02-24T06:35:32.192Z,100832.66
2023-02-24T06:38:37.718Z,100831.62
2023-02-24T06:41:37.078Z,100814.86
2023-02-24T06:44:41.811Z,100807.87
2023-02-24T06:47:46.267Z,100804.93
2023-02-24T06:50:50.755Z,100808.69
2023-02-24T06:53:56.795Z,100807.96
2023-02-24T06:57:02.378Z,100804.38
2023-02-24T07:00:19.403Z,100808.40
2023-02-24T07:03:27.149Z,100808.71
2023-02-24T07:06:32.318Z,100802.49
2023-02-24T07:09:38.797Z,100793.50
2023-02-24T07:12:44.121Z,100785.47
2023-02-24T07:15:51.900Z,100785.52
2023-02-24T07:18:57.277Z,100782.02
2023-02-24T07:22:05.653Z,100781.38
2023-02-24T07:25:13.790Z,100776.22
2023-02-24T07:28:18.886Z,100768.36
2023-02-24T07:31:26.596Z,100762.20
2023-02-24T07:34:31.586Z,100758.38
2023-02-24T07:37:38.262Z,100764.11
2023-02-24T07:40:47.391Z,100757.91
2023-02-24T07:43:52.499Z,100759.42
2023-02-24T07:46:56.619Z,100762.36
2023-02-24T07:50:01.761Z,100757.03
2023-02-24T07:53:08.182Z,100760.14
2023-02-24T07:56:13.188Z,100747.38
2023-02-24T07:59:21.292Z,100736.62
2023-02-24T08:02:25.997Z,100740.55
2023-02-24T08:05:32.829Z,100734.12
2023-02-24T08:08:38.151Z,100730.19
2023-02-24T08:11:46.414Z,100724.47
2023-02-24T08:14:52.817Z,100724.15
2023-02-24T08:17:58.383Z,100732.22
2023-02-24T08:21:04.886Z,100725.55
2023-02-24T08:24:09.707Z,100723.05
2023-02-24T08:27:14.277Z,100720.66
2023-02-24T08:30:14.576Z,100721.47
2023-02-24T08:33:25.017Z,100724.36
2023-02-24T08:36:33.207Z,100725.53
2023-02-24T08:39:42.688Z,100719.96
2023-02-24T08:42:46.088Z,100714.73
2023-02-24T08:45:52.860Z,100721.64
2023-02-24T08:49:12.130Z,100710.58
2023-02-24T08:52:19.385Z,100721.49
2023-02-24T08:55:26.854Z,100712.26
2023-02-24T08:58:26.915Z,100704.66
2023-02-24T09:01:16.163Z,100703.30
2023-02-24T09:04:16.258Z,100700.62
2023-02-24T09:07:11.305Z,100692.96
2023-02-24T09:09:57.114Z,100692.02
2023-02-24T09:12:56.657Z,100689.06
2023-02-24T09:16:00.144Z,100680.45
2023-02-24T09:19:16.423Z,100683.66
2023-02-24T09:22:25.827Z,100672.38
2023-02-24T09:25:32.321Z,100670.51
2023-02-24T09:28:39.528Z,100655.86
2023-02-24T09:31:47.814Z,100659.44
2023-02-24T09:34:56.972Z,100652.03
2023-02-24T09:38:03.797Z,100642.83
2023-02-24T09:41:18.341Z,100646.20
2023-02-24T09:44:21.128Z,100632.16
2023-02-24T09:47:40.558Z,100625.56
2023-02-24T09:51:03.405Z,100624.83
2023-02-24T09:54:08.411Z,100613.53
2023-02-24T09:57:15.295Z,100615.89
2023-02-24T10:00:26.717Z,100602.87
2023-02-24T10:03:52.606Z,100593.30
2023-02-24T10:07:02.064Z,100579.92
2023-02-24T10:10:12.326Z,100578.06
2023-02-24T10:13:27.682Z,100575.98
2023-02-24T10:16:36.541Z,100563.44
2023-02-24T10:19:43.358Z,100556.69
2023-02-24T10:23:04.135Z,100556.53
2023-02-24T10:26:31.645Z,100541.43
2023-02-24T10:30:11.358Z,100530.09
2023-02-24T10:33:16.948Z,100528.56
2023-02-24T10:36:24.438Z,100525.21
2023-02-24T10:39:35.092Z,100515.66
2023-02-24T10:42:44.247Z,100506.22
2023-02-24T10:45:52.769Z,100507.29
2023-02-24T10:49:09.394Z,100493.14
2023-02-24T10:52:15.890Z,100482.06
2023-02-24T10:55:39.618Z,100471.69
2023-02-24T10:58:49.237Z,100472.60
2023-02-24T11:02:03.638Z,100459.11
2023-02-24T11:05:11.630Z,100456.23
2023-02-24T11:08:45.170Z,100452.58
2023-02-24T11:12:03.130Z,100446.47
2023-02-24T11:15:27.427Z,100441.09
2023-02-24T11:18:36.820Z,100436.05
2023-02-24T11:21:42.778Z,100434.61
2023-02-24T11:24:46.643Z,100433.82
2023-02-24T11:27:52.906Z,100425.02
2023-02-24T11:31:28.440Z,100409.48
2023-02-24T11:34:56.637Z,100406.27
2023-02-24T11:38:16.827Z,100400.85
2023-02-24T11:41:26.649Z,100394.13
2023-02-24T11:44:43.116Z,100393.80
2023-02-24T11:47:59.546Z,100383.24
2023-02-24T11:51:09.465Z,100382.87
2023-02-24T11:54:25.213Z,100373.05
2023-02-24T11:57:27.620Z,100366.27
2023-02-24T12:00:32.681Z,100370.33
2023-02-24T12:03:44.167Z,100366.13
2023-02-24T12:06:53.016Z,100366.53
2023-02-24T12:10:17.244Z,100356.25
2023-02-24T12:13:31.739Z,100348.40
2023-02-24T12:16:52.682Z,100348.98
2023-02-24T12:20:21.826Z,100338.41
2023-02-24T12:23:47.928Z,100338.48
2023-02-24T12:27:07.784Z,100325.85
2023-02-24T12:30:20.632Z,100326.50
2023-02-24T12:33:42.878Z,100326.00
2023-02-24T12:36:57.130Z,100318.87
2023-02-24T12:40:04.524Z,100313.14
2023-02-24T12:43:13.625Z,100306.36
2023-02-24T12:46:25.310Z,100298.71
2023-02-24T12:49:45.449Z,100295.92
2023-02-24T12:53:14.906Z,100289.30
2023-02-24T12:56:37.495Z,100284.57
2023-02-24T12:59:44.238Z,100278.95
2023-02-24T13:03:17.959Z,100278.80
2023-02-24T13:06:48.652Z,100276.38
2023-02-24T13:10:00.716Z,100266.61
2023-02-24T13:13:15.073Z,100255.27
2023-02-24T13:16:25.300Z,100263.63
2023-02-24T13:19:36.250Z,100259.77
2023-02-24T13:22:45.248Z,100256.78
2023-02-24T13:25:50.691Z,100252.05
2023-02-24T13:28:55.973Z,100244.58
2023-02-24T13:32:06.225Z,100253.26
2023-02-24T13:35:13.662Z,100238.08
2023-02-24T13:38:39.360Z,100241.64
2023-02-24T13:41:48.311Z,100233.73
2023-02-24T13:44:52.850Z,100231.57
2023-02-24T13:48:04.219Z,100224.52
2023-02-24T13:51:19.723Z,100228.58
2023-02-24T13:54:35.558Z,100229.36
2023-02-24T13:58:00.237Z,100215.73
2023-02-24T14:01:14.406Z,100212.17
2023-02-24T14:04:32.238Z,100200.27
2023-02-24T14:07:39.397Z,100194.34
2023-02-24T14:10:46.043Z,100192.91
2023-02-24T14:13:50.575Z,100193.60
2023-02-24T14:16:55.456Z,100192.81
2023-02-24T14:19:59.992Z,100180.05
2023-02-24T14:23:08.156Z,100181.62
2023-02-24T14:26:19.327Z,100173.86
2023-02-24T14:29:24.081Z,100165.71
2023-02-24T14:32:36.797Z,100174.05
2023-02-24T14:35:48.648Z,100169.77
2023-02-24T14:38:55.170Z,100167.36
2023-02-24T14:42:00.496Z,100164.22
2023-02-24T14:45:07.103Z,100168.36
2023-02-24T14:48:14.195Z,100161.80
2023-02-24T14:51:28.804Z,100161.62
2023-02-24T14:54:37.092Z,100153.22
2023-02-24T14:57:47.188Z,100160.89
2023-02-24T15:00:55.069Z,100155.83
2023-02-24T15:04:10.887Z,100158.38
2023-02-24T15:07:17.783Z,100156.19
2023-02-24T15:10:25.748Z,100152.59
2023-02-24T15:13:32.908Z,100148.63
2023-02-24T15:16:45.955Z,100150.07
2023-02-24T15:19:47.043Z,100145.50
2023-02-24T15:22:53.084Z,100155.58
2023-02-24T15:25:59.654Z,100152.83
2023-02-24T15:29:03.822Z,100152.12
2023-02-24T15:32:08.628Z,100150.95
2023-02-24T15:35:11.817Z,100150.50
2023-02-24T15:38:18.718Z,100150.39
2023-02-24T15:41:24.347Z,100145.38
2023-02-24T15:44:43.758Z,100143.34
2023-02-24T15:48:00.440Z,100141.86
2023-02-24T15:51:06.238Z,100151.80
2023-02-24T15:54:12.733Z,100143.28
2023-02-24T15:57:20.471Z,100141.33
2023-02-24T16:00:30.075Z,100145.87
2023-02-24T16:03:35.755Z,100139.44
2023-02-24T16:06:43.509Z,100132.83
2023-02-24T16:09:51.965Z,100138.58
2023-02-24T16:13:02.305Z,100137.27
2023-02-24T16:16:06.870Z,100143.74
2023-02-24T16:19:11.830Z,100134.75
2023-02-24T16:22:16.152Z,100143.45
2023-02-24T16:25:21.930Z,100129.13
2023-02-24T16:28:28.891Z,100133.23
2023-02-24T16:31:35.773Z,100121.96
2023-02-24T16:34:40.369Z,100114.75
2023-02-24T16:37:45.271Z,100105.33
2023-02-24T16:40:50.375Z,100108.49
2023-02-24T16:43:56.451Z,100098.11
2023-02-24T16:47:01.803Z,100096.34
2023-02-24T16:50:06.678Z,100093.67
2023-02-24T16:53:12.947Z,100090.19
2023-02-24T16:56:18.607Z,100087.60
2023-02-24T16:59:23.686Z,100087.06
2023-02-24T17:02:31.408Z,100079.61
2023-02-24T17:05:38.492Z,100075.80
2023-02-24T17:08:37.694Z,100073.56
2023-02-24T17:11:27.957Z,100070.19
2023-02-24T17:14:24.677Z,100070.05
2023-02-24T17:17:11.903Z,100064.30
2023-02-24T17:20:04.732Z,100057.80
2023-02-24T17:22:50.697Z,100051.90
2023-02-24T17:25:43.409Z,100045.92
2023-02-24T17:28:29.102Z,100049.41
2023-02-24T17:31:21.145Z,100048.77
2023-02-24T17:34:07.609Z,100047.17
2023-02-24T17:37:02.461Z,100039.00
2023-02-24T17:40:06.767Z,100041.13
2023-02-24T17:43:11.349Z,100050.19
2023-02-24T17:46:16.827Z,100051.01
2023-02-24T17:49:20.986Z,100051.44
2023-02-24T17:52:26.170Z,100044.14
2023-02-24T17:55:31.925Z,100030.50
2023-02-24T17:58:37.104Z,100030.25
2023-02-24T18:01:42.690Z,100021.52
2023-02-24T18:04:47.420Z,100021.03
2023-02-24T18:07:55.738Z,100021.17
2023-02-24T18:10:59.788Z,100019.93
2023-02-24T18:14:00.532Z,100017.38
2023-02-24T18:17:04.554Z,100013.33
2023-02-24T18:20:08.793Z,100011.38
2023-02-24T18:23:13.812Z,100001.18
2023-02-24T18:26:18.156Z,99990.23
2023-02-24T18:29:17.277Z,99983.14
2023-02-24T18:32:22.439Z,99992.16
2023-02-24T18:35:28.311Z,99986.63
2023-02-24T18:38:33.573Z,99990.59
2023-02-24T18:41:39.123Z,99984.59
2023-02-24T18:44:43.452Z,99983.81
2023-02-24T18:47:48.436Z,99979.16
2023-02-24T18:50:53.804Z,99972.67
2023-02-24T18:53:58.890Z,99977.78
2023-02-24T18:57:02.908Z,99973.20
2023-02-24T19:00:09.222Z,99962.66
2023-02-24T19:03:13.583Z,99964.40
2023-02-24T19:06:17.906Z,99962.95
2023-02-24T19:09:26.038Z,99967.98
2023-02-24T19:12:31.039Z,99963.61
2023-02-24T19:15:36.005Z,99954.38
2023-02-24T19:18:41.962Z,99956.17
2023-02-24T19:21:46.856Z,99958.03
2023-02-24T19:24:52.132Z,99952.01
2023-02-24T19:27:57.696Z,99955.27
2023-02-24T19:31:02.882Z,99949.27
2023-02-24T19:34:08.743Z,99939.87
2023-02-24T19:37:13.097Z,99941.09
2023-02-24T19:40:19.080Z,99931.05
2023-02-24T19:43:23.603Z,99920.73
2023-02-24T19:46:30.042Z,99928.47
2023-02-24T19:49:34.355Z,99922.18
2023-02-24T19:52:38.801Z,99921.33
2023-02-24T19:55:43.462Z,99910.89
2023-02-24T19:58:48.324Z,99911.30
2023-02-24T20:01:53.334Z,99906.69
2023-02-24T20:05:00.825Z,99890.50
2023-02-24T20:08:06.565Z,99897.25
2023-02-24T20:11:14.789Z,99888.13
2023-02-24T20:14:20.724Z,99884.89
2023-02-24T20:17:28.569Z,99884.98
2023-02-24T20:20:32.156Z,99886.69
2023-02-24T20:23:36.667Z,99887.25
2023-02-24T20:26:40.948Z,99884.50
2023-02-24T20:29:39.539Z,99874.56
2023-02-24T20:32:44.691Z,99875.41
2023-02-24T20:35:53.361Z,99871.59
2023-02-24T20:38:59.275Z,99866.11
2023-02-24T20:42:04.772Z,99867.51
2023-02-24T20:45:09.154Z,99859.17
2023-02-24T20:48:13.679Z,99856.61
2023-02-24T20:51:20.896Z,99847.73
2023-02-24T20:54:25.580Z,99847.53
2023-02-24T20:57:29.780Z,99848.98
2023-02-24T21:00:34.450Z,99839.98
2023-02-24T21:03:40.100Z,99834.39
2023-02-24T21:06:44.118Z,99828.91
2023-02-24T21:09:48.631Z,99826.16
2023-02-24T21:12:56.722Z,99818.57
2023-02-24T21:16:07.540Z,99825.27
2023-02-24T21:19:12.577Z,99813.05
2023-02-24T21:22:19.049Z,99811.72
2023-02-24T21:25:25.332Z,99808.45
2023-02-24T21:28:28.654Z,99800.33
2023-02-24T21:31:33.273Z,99799.03
2023-02-24T21:34:37.126Z,99794.16
2023-02-24T21:37:42.238Z,99790.38
2023-02-24T21:40:47.468Z,99787.84
2023-02-24T21:43:55.430Z,99783.78
2023-02-24T21:47:02.184Z,99788.27
2023-02-24T21:50:07.030Z,99787.97
2023-02-24T21:53:13.530Z,99781.02
2023-02-24T21:56:22.732Z,99775.95
2023-02-24T21:59:27.242Z,99778.38
2023-02-24T22:02:31.039Z,99768.77
2023-02-24T22:05:37.352Z,99768.20
2023-02-24T22:08:43.593Z,99758.88
2023-02-24T22:11:50.222Z,99758.93
2023-02-24T22:14:54.630Z,99753.81
2023-02-24T22:18:00.031Z,99752.14
2023-02-24T22:21:05.003Z,99747.38
2023-02-24T22:24:15.075Z,99740.16
2023-02-24T22:27:19.617Z,99746.58
2023-02-24T22:30:24.944Z,99734.17
2023-02-24T22:33:28.696Z,99738.64
2023-02-24T22:36:36.507Z,99731.12
2023-02-24T22:39:41.466Z,99720.09
2023-02-24T22:42:45.702Z,99715.18
2023-02-24T22:45:49.950Z,99713.05
2023-02-24T22:48:54.556Z,99713.44
2023-02-24T22:51:53.853Z,99710.16
2023-02-24T22:54:47.707Z,99700.25
2023-02-24T22:57:54.501Z,99703.30
2023-02-24T23:00:51.852Z,99696.13
2023-02-24T23:03:59.868Z,99692.22
2023-02-24T23:07:03.998Z,99680.47
2023-02-24T23:10:02.328Z,99681.41
2023-02-24T23:12:55.252Z,99673.91
2023-02-24T23:16:02.879Z,99675.85
2023-02-24T23:19:07.995Z,99670.60
2023-02-24T23:22:15.149Z,99662.77
2023-02-24T23:25:23.311Z,99655.92
2023-02-24T23:28:28.269Z,99654.19
2023-02-24T23:31:34.918Z,99648.54
2023-02-24T23:34:40.833Z,99652.88
2023-02-24T23:37:45.782Z,99647.52
2023-02-24T23:40:58.553Z,99645.57
2023-02-24T23:44:03.629Z,99638.38
2023-02-24T23:47:08.082Z,99630.83
2023-02-24T23:50:12.865Z,99632.14
2023-02-24T23:53:19.529Z,99622.78
2023-02-24T23:56:29.244Z,99624.51
2023-02-24T23:59:34.077Z,99628.22
